Terminal Aerodrome Forecast
Issued by NWS

Home | Current Version | Previous Version | Text Only | Print | Product List | Glossary On
Versions: 1 2 3 4 5 6 7 8 9 10 11 12 13 14 15 16 17 18 19
000
FTUS44 KLZK 200918 AAB
TAFADF
TAF AMD
KADF 200918Z 2009/2106 VRB03KT 3SM BR SKC
      TEMPO 2009/2013 1/2SM FG BKN002
     FM201500 19007KT P6SM SCT250
     FM210000 15004KT P6SM SCT250=

USA.gov is the U.S. government's official web portal to all federal, state and local government web resources and services.